Time;durP1;ratioP1;P1;durP2;ratioP2;P2;SDS_P1;SDS_P2;PMS_P1;PMS_P2;Temp;Humidity;BMP_temperature;BMP_pressure;BME280_temperature;BME280_humidity;BME280_pressure;Samples;Min_cycle;Max_cycle;Signal;HPM_P1;HPM_P2
2022/10/01 00:01:53;;;;;;;16.00;11.00;;;;;;;14.51;100.00;99197.20;1639248;84;21036;-64
2022/10/01 00:04:20;;;;;;;16.75;11.80;;;;;;;14.39;100.00;99206.59;1640795;86;20986;-64
2022/10/01 00:06:46;;;;;;;13.35;11.95;;;;;;;14.39;100.00;99206.59;1621877;88;21033;-64
2022/10/01 00:09:13;;;;;;;18.02;12.43;;;;;;;14.37;100.00;99209.81;1633218;87;21145;-64
2022/10/01 00:11:40;;;;;;;14.33;10.75;;;;;;;14.32;100.00;99211.39;1633260;87;20997;-64
2022/10/01 00:14:09;;;;;;;15.68;10.30;;;;;;;14.29;100.00;99220.73;1633609;86;20969;-64
2022/10/01 00:16:35;;;;;;;14.83;12.03;;;;;;;14.25;100.00;99224.92;1633317;86;21457;-64
2022/10/01 00:19:02;;;;;;;11.78;10.68;;;;;;;14.19;100.00;99214.84;1621678;87;20978;-64
2022/10/01 00:21:30;;;;;;;13.28;11.88;;;;;;;14.12;100.00;99223.05;1621680;88;21290;-64
2022/10/01 00:24:00;;;;;;;13.68;11.28;;;;;;;14.02;100.00;99212.75;1594639;90;20991;-64
2022/10/01 00:26:30;;;;;;;12.98;11.57;;;;;;;13.94;100.00;99214.16;1621807;88;21021;-64
2022/10/01 00:29:01;;;;;;;14.75;12.75;;;;;;;13.94;100.00;99214.16;1594670;90;21527;-64
2022/10/01 00:31:27;;;;;;;15.45;13.88;;;;;;;13.89;100.00;99222.27;1621789;88;20974;-64
2022/10/01 00:33:57;;;;;;;14.60;13.15;;;;;;;13.86;100.00;99233.36;1594761;89;21257;-64
2022/10/01 00:36:25;;;;;;;13.95;12.18;;;;;;;13.82;100.00;99236.61;1621640;88;21065;-64
2022/10/01 00:38:51;;;;;;;14.30;12.25;;;;;;;13.79;100.00;99232.86;1594687;89;21004;-64
2022/10/01 00:41:18;;;;;;;13.75;12.25;;;;;;;13.76;100.00;99229.15;1621751;88;21042;-65
2022/10/01 00:43:54;;;;;;;15.40;12.90;;;;;;;13.72;100.00;99231.56;1594774;90;21071;-64
2022/10/01 00:46:34;;;;;;;13.88;12.47;;;;;;;13.69;100.00;99228.66;1621802;88;21781;-64
2022/10/01 00:49:06;;;;;;;12.73;11.50;;;;;;;13.66;100.00;99232.75;1594838;89;21001;-64
2022/10/01 00:51:43;;;;;;;12.05;10.50;;;;;;;13.58;100.00;99233.67;1621688;88;21022;-64
2022/10/01 00:54:17;;;;;;;14.45;12.75;;;;;;;13.58;100.00;99233.67;1594695;88;21088;-64
2022/10/01 00:56:45;;;;;;;13.08;11.70;;;;;;;13.55;100.00;99231.23;1619530;88;21029;-64
2022/10/01 00:59:12;;;;;;;13.15;11.85;;;;;;;13.48;100.00;99228.58;1594761;89;21260;-64
2022/10/01 01:01:38;;;;;;;11.88;10.63;;;;;;;13.44;100.00;99222.68;1627347;86;21481;-64
2022/10/01 01:04:15;;;;;;;13.95;11.60;;;;;;;13.42;100.00;99221.08;1630249;86;21073;-65
2022/10/01 01:06:36;;;;;;;13.32;11.95;;;;;;;13.41;100.00;99221.55;1632975;86;21013;-64
2022/10/01 01:09:04;;;;;;;16.73;12.20;;;;;;;13.39;100.00;99223.86;1621694;88;21534;-64
2022/10/01 01:11:47;;;;;;;13.22;11.08;;;;;;;13.36;100.00;99227.52;1633245;87;21144;-64
2022/10/01 01:14:28;;;;;;;12.65;11.12;;;;;;;13.33;100.00;99225.08;1633257;86;21036;-64
2022/10/01 01:17:01;;;;;;;13.95;12.55;;;;;;;13.30;100.00;99233.08;1621525;88;21493;-64
2022/10/01 01:20:04;;;;;;;16.07;12.30;;;;;;;13.27;100.00;99238.47;1630881;85;21038;-64
2022/10/01 01:22:33;;;;;;;14.60;12.68;;;;;;;13.25;100.00;99238.17;1634154;86;20994;-63
2022/10/01 01:25:20;;;;;;;12.50;11.20;;;;;;;13.21;100.00;99241.41;1634324;86;21772;-63
2022/10/01 01:28:08;;;;;;;11.60;10.10;;;;;;;13.16;100.00;99246.08;1612471;87;21042;-63
2022/10/01 01:30:43;;;;;;;14.00;11.48;;;;;;;13.11;100.00;99236.31;1635250;86;21509;-63
2022/10/01 01:33:14;;;;;;;11.80;10.63;;;;;;;13.05;100.00;99246.62;1634085;86;21050;-63
2022/10/01 01:35:59;;;;;;;12.10;10.72;;;;;;;13.01;100.00;99244.25;1634166;87;21486;-63
2022/10/01 01:38:28;;;;;;;11.25;10.20;;;;;;;12.97;100.00;99250.59;1634070;86;21138;-63
2022/10/01 01:40:59;;;;;;;12.33;11.18;;;;;;;12.94;100.00;99242.92;1633949;87;21090;-63
2022/10/01 01:43:30;;;;;;;17.05;11.20;;;;;;;12.91;100.00;99243.93;1633836;87;21034;-63
2022/10/01 01:45:57;;;;;;;14.43;12.30;;;;;;;12.90;100.00;99251.84;1634232;86;21076;-64
2022/10/01 01:48:23;;;;;;;14.68;11.00;;;;;;;12.87;100.00;99258.06;1634669;86;21088;-66
2022/10/01 01:50:58;;;;;;;11.30;10.20;;;;;;;12.85;100.00;99250.78;1633898;87;21138;-63
2022/10/01 01:53:25;;;;;;;15.93;12.75;;;;;;;12.84;100.00;99256.08;1632435;86;21046;-63
2022/10/01 01:55:52;;;;;;;12.47;11.28;;;;;;;12.84;100.00;99265.22;1633807;86;20998;-63
2022/10/01 01:58:19;;;;;;;15.08;12.23;;;;;;;12.82;100.00;99257.92;1610410;87;21006;-63
2022/10/01 02:00:47;;;;;;;12.68;10.90;;;;;;;12.81;100.00;99261.46;1635067;86;21026;-63
2022/10/01 02:03:13;;;;;;;12.58;10.65;;;;;;;12.82;100.00;99263.14;1634042;86;22072;-63
2022/10/01 02:05:47;;;;;;;12.45;11.28;;;;;;;12.82;100.00;99265.75;1633800;87;21022;-63
2022/10/01 02:08:40;;;;;;;14.57;11.70;;;;;;;12.82;100.00;99273.12;1634249;86;21050;-63
2022/10/01 02:11:26;;;;;;;17.42;10.98;;;;;;;12.81;100.00;99270.13;1634226;86;21042;-63
2022/10/01 02:14:27;;;;;;;11.12;9.95;;;;;;;12.81;100.00;99274.05;1634495;86;20990;-63
2022/10/01 02:17:03;;;;;;;12.45;11.30;;;;;;;12.82;100.00;99275.73;1634048;86;21237;-63
2022/10/01 02:19:47;;;;;;;12.68;11.12;;;;;;;12.82;100.00;99278.80;1654146;86;20978;-63
2022/10/01 02:22:20;;;;;;;17.57;11.25;;;;;;;12.82;100.00;99274.89;1648190;86;21041;-63
2022/10/01 02:24:51;;;;;;;12.25;9.05;;;;;;;12.81;100.00;99274.51;1659414;86;21025;-63
2022/10/01 02:27:28;;;;;;;13.95;12.13;;;;;;;12.80;100.00;99277.58;1659179;86;20997;-63
2022/10/01 02:29:57;;;;;;;14.65;12.18;;;;;;;12.80;100.00;99274.97;1659313;86;21169;-63
2022/10/01 02:32:24;;;;;;;11.38;8.25;;;;;;;12.81;100.00;99281.03;1659250;85;21057;-63
2022/10/01 02:34:51;;;;;;;9.43;8.48;;;;;;;12.81;100.00;99266.67;1659285;86;21026;-63
2022/10/01 02:37:23;;;;;;;12.10;10.85;;;;;;;12.79;100.00;99259.42;1660036;85;21035;-63
2022/10/01 02:39:51;;;;;;;13.93;12.53;;;;;;;12.76;100.00;99257.81;1659236;86;21018;-64
2022/10/01 02:42:18;;;;;;;13.25;12.00;;;;;;;12.78;100.00;99272.09;1659281;86;21286;-64
2022/10/01 02:44:45;;;;;;;13.72;12.18;;;;;;;12.78;100.00;99267.72;1659415;86;21517;-64
2022/10/01 02:47:22;;;;;;;17.90;11.73;;;;;;;12.78;100.00;99268.17;1659514;86;20986;-63
2022/10/01 02:49:49;;;;;;;13.53;12.05;;;;;;;12.78;100.00;99266.88;1659600;85;20989;-64
2022/10/01 02:52:39;;;;;;;13.32;12.05;;;;;;;12.76;100.00;99266.48;1659480;86;21493;-63
2022/10/01 02:55:10;;;;;;;13.80;12.45;;;;;;;12.76;100.00;99266.48;1659959;86;21168;-63
2022/10/01 02:57:37;;;;;;;11.53;10.43;;;;;;;12.75;100.00;99272.63;1659533;86;21025;-64
2022/10/01 03:00:09;;;;;;;10.98;9.53;;;;;;;12.77;100.00;99277.77;1659410;86;21113;-64
2022/10/01 03:02:36;;;;;;;11.35;9.10;;;;;;;12.77;100.00;99279.08;1659509;85;21522;-64
2022/10/01 03:05:03;;;;;;;11.28;10.20;;;;;;;12.76;100.00;99284.76;1659424;86;21018;-63
2022/10/01 03:07:33;;;;;;;12.93;11.33;;;;;;;12.75;100.00;99286.14;1659278;86;21150;-64
2022/10/01 03:10:01;;;;;;;11.45;10.25;;;;;;;12.71;100.00;99284.61;1659481;86;21017;-64
2022/10/01 03:12:28;;;;;;;10.78;9.60;;;;;;;12.70;100.00;99280.31;1659342;85;21014;-64
2022/10/01 03:14:54;;;;;;;11.45;10.20;;;;;;;12.71;100.00;99284.61;1659406;85;21081;-64
2022/10/01 03:17:21;;;;;;;12.05;10.90;;;;;;;12.70;100.00;99292.91;1659542;85;20981;-64
2022/10/01 03:19:48;;;;;;;13.58;10.90;;;;;;;12.72;100.00;99291.52;1659295;86;21130;-64
2022/10/01 03:22:21;;;;;;;12.30;10.53;;;;;;;12.72;100.00;99294.13;1659432;86;20978;-64
2022/10/01 03:24:46;;;;;;;11.75;9.45;;;;;;;12.73;100.00;99297.13;1659256;85;21560;-63
2022/10/01 03:27:13;;;;;;;11.18;10.05;;;;;;;12.72;100.00;99295.43;1659364;86;20990;-63
2022/10/01 03:29:39;;;;;;;11.85;10.63;;;;;;;12.71;100.00;99293.28;1659493;86;20990;-63
2022/10/01 03:32:06;;;;;;;12.45;11.25;;;;;;;12.71;100.00;99306.33;1659478;85;21157;-63
2022/10/01 03:34:32;;;;;;;10.85;9.85;;;;;;;12.70;100.00;99303.34;1659336;86;21093;-64
2022/10/01 03:36:59;;;;;;;11.10;9.85;;;;;;;12.73;100.00;99312.31;1659442;85;21446;-63
2022/10/01 03:39:26;;;;;;;9.83;8.83;;;;;;;12.74;100.00;99304.03;1659492;85;21573;-63
2022/10/01 03:41:52;;;;;;;11.70;10.50;;;;;;;12.76;100.00;99310.01;1647395;86;20982;-63
2022/10/01 03:44:19;;;;;;;12.73;10.45;;;;;;;12.78;100.00;99306.86;1647693;85;21152;-64
2022/10/01 03:46:45;;;;;;;10.68;9.55;;;;;;;12.82;100.00;99311.43;1647392;87;21081;-64
2022/10/01 03:49:12;;;;;;;9.50;8.48;;;;;;;12.86;100.00;99317.72;1647464;87;21014;-63
2022/10/01 03:51:39;;;;;;;11.68;10.15;;;;;;;12.90;100.00;99314.48;1659665;85;21018;-63
2022/10/01 03:54:06;;;;;;;11.55;10.35;;;;;;;12.92;100.00;99321.78;1659378;86;21073;-63
2022/10/01 03:56:34;;;;;;;11.22;9.68;;;;;;;12.93;100.00;99324.31;1659560;85;21863;-63
2022/10/01 03:59:01;;;;;;;10.15;8.15;;;;;;;12.93;100.00;99320.39;1659358;86;21027;-63
2022/10/01 04:01:28;;;;;;;9.28;8.30;;;;;;;12.94;100.00;99311.64;1659429;86;21005;-63
2022/10/01 04:03:55;;;;;;;10.48;9.40;;;;;;;12.95;100.00;99309.88;1659422;86;21013;-63
2022/10/01 04:06:21;;;;;;;12.15;8.98;;;;;;;12.96;100.00;99312.86;1659269;86;21014;-63
2022/10/01 04:08:49;;;;;;;9.68;8.63;;;;;;;12.95;100.00;99311.18;1659579;86;21518;-63
2022/10/01 04:11:17;;;;;;;10.93;8.08;;;;;;;12.93;100.00;99326.92;1659313;86;21113;-65
2022/10/01 04:13:43;;;;;;;13.40;7.40;;;;;;;12.94;100.00;99322.08;1659316;85;20962;-63
2022/10/01 04:16:10;;;;;;;9.73;8.83;;;;;;;12.93;100.00;99326.92;1659258;85;20998;-64
2022/10/01 04:18:37;;;;;;;12.15;10.05;;;;;;;12.93;100.00;99328.69;1659168;85;21577;-65
2022/10/01 04:21:03;;;;;;;10.15;8.65;;;;;;;12.93;100.00;99332.14;1659356;86;21158;-63
2022/10/01 04:23:30;;;;;;;9.00;7.97;;;;;;;12.94;100.00;99331.68;1659292;86;20974;-63
2022/10/01 04:26:03;;;;;;;8.28;7.47;;;;;;;12.98;100.00;99334.52;1659527;85;21041;-63
2022/10/01 04:28:30;;;;;;;11.50;8.55;;;;;;;13.01;100.00;99343.46;1647519;86;21034;-64
2022/10/01 04:33:43;;;;;;;11.30;9.23;;;;;;;13.03;100.00;99346.37;1647610;87;21171;-64
2022/10/01 04:36:10;;;;;;;9.30;8.25;;;;;;;13.06;100.00;99347.98;1647400;86;21023;-64
2022/10/01 04:38:37;;;;;;;9.83;7.55;;;;;;;13.08;100.00;99347.44;1647752;86;21565;-64
2022/10/01 04:41:04;;;;;;;9.08;7.92;;;;;;;13.12;100.00;99350.28;1647427;85;20979;-64
2022/10/01 04:43:31;;;;;;;11.55;8.63;;;;;;;13.16;100.00;99344.46;1647751;86;21422;-64
2022/10/01 04:45:57;;;;;;;9.88;8.60;;;;;;;13.21;100.00;99347.64;1647532;87;21156;-65
2022/10/01 04:48:24;;;;;;;9.30;8.30;;;;;;;13.26;100.00;99347.78;1647500;86;21070;-65
2022/10/01 04:50:51;;;;;;;7.95;7.17;;;;;;;13.31;100.00;99354.08;1647557;87;20975;-64
2022/10/01 04:53:17;;;;;;;9.60;8.60;;;;;;;13.35;100.00;99349.91;1647574;85;21010;-64
2022/10/01 04:55:45;;;;;;;11.03;8.93;;;;;;;13.40;100.00;99357.47;1647641;85;21556;-65
2022/10/01 04:58:12;;;;;;;12.25;9.65;;;;;;;13.44;100.00;99359.84;1647523;85;21812;-65
2022/10/01 05:00:39;;;;;;;11.75;8.65;;;;;;;13.48;100.00;99360.52;1647386;85;20979;-64
2022/10/01 05:03:06;;;;;;;10.20;8.00;;;;;;;13.52;100.00;99365.97;1647531;86;21030;-64
2022/10/01 05:05:33;;;;;;;12.00;8.10;;;;;;;13.56;100.00;99353.58;1647449;87;20999;-64
2022/10/01 05:08:01;;;;;;;11.40;8.95;;;;;;;13.60;100.00;99352.45;1647521;87;21087;-65
2022/10/01 05:10:28;;;;;;;9.50;8.60;;;;;;;13.62;100.00;99350.14;1647427;86;21151;-64
2022/10/01 05:12:55;;;;;;;8.68;7.30;;;;;;;13.66;100.00;99352.13;1647375;85;21069;-64
2022/10/01 05:15:22;;;;;;;7.75;6.95;;;;;;;13.69;100.00;99359.33;1647445;87;20959;-66
2022/10/01 05:17:48;;;;;;;11.08;8.30;;;;;;;13.73;100.00;99344.33;1627528;87;21003;-65
2022/10/01 05:20:19;;;;;;;10.88;9.73;;;;;;;13.77;100.00;99347.16;1647390;87;21078;-65
2022/10/01 05:22:46;;;;;;;13.40;10.72;;;;;;;13.81;100.00;99347.33;1647510;85;21115;-65
2022/10/01 05:25:13;;;;;;;10.35;9.30;;;;;;;13.85;100.00;99348.01;1647463;87;20986;-65
2022/10/01 05:27:40;;;;;;;8.90;8.10;;;;;;;13.90;100.00;99349.44;1647433;86;20975;-66
2022/10/01 05:30:09;;;;;;;11.05;7.35;;;;;;;13.96;100.00;99350.41;1647525;86;21019;-66
2022/10/01 05:32:36;;;;;;;11.12;8.88;;;;;;;14.02;100.00;99347.88;1647541;87;21561;-66
2022/10/01 05:35:05;;;;;;;9.30;8.35;;;;;;;14.08;100.00;99354.92;1647470;87;21257;-66
2022/10/01 05:37:32;;;;;;;11.35;8.53;;;;;;;14.14;100.00;99351.12;1647372;87;21568;-66
2022/10/01 05:40:00;;;;;;;11.83;9.45;;;;;;;14.22;100.00;99357.20;1647415;85;20987;-66
2022/10/01 05:42:27;;;;;;;11.53;9.43;;;;;;;14.29;100.00;99350.22;1647414;85;21026;-64
2022/10/01 05:44:54;;;;;;;10.80;9.60;;;;;;;14.37;100.00;99353.70;1647526;87;21027;-65
2022/10/01 05:47:21;;;;;;;11.50;9.63;;;;;;;14.47;100.00;99357.48;1647411;87;21108;-65
2022/10/01 05:49:48;;;;;;;9.15;8.23;;;;;;;14.56;100.00;99364.80;1647448;86;21477;-65
2022/10/01 05:52:15;;;;;;;12.53;9.80;;;;;;;14.68;100.00;99357.98;1647461;87;21023;-64
2022/10/01 05:54:42;;;;;;;15.28;10.32;;;;;;;14.81;100.00;99358.45;1647628;86;21506;-65
2022/10/01 05:57:09;;;;;;;15.65;10.63;;;;;;;14.93;100.00;99364.74;1647508;87;21046;-65
2022/10/01 05:59:36;;;;;;;10.82;9.55;;;;;;;15.07;100.00;99368.66;1647401;85;21505;-65
2022/10/01 06:02:03;;;;;;;10.10;8.33;;;;;;;15.40;100.00;99371.42;1645650;87;21007;-65
2022/10/01 06:04:30;;;;;;;7.70;6.22;;;;;;;15.40;100.00;99371.42;1659814;85;21014;-65
2022/10/01 06:06:56;;;;;;;6.37;5.78;;;;;;;15.57;100.00;99375.66;1659349;85;21077;-65
2022/10/01 06:09:24;;;;;;;7.37;6.12;;;;;;;15.71;100.00;99375.14;1659368;86;21108;-65
2022/10/01 06:11:51;;;;;;;7.85;6.03;;;;;;;15.85;100.00;99373.78;1659631;85;21148;-65
2022/10/01 06:14:18;;;;;;;14.83;8.43;;;;;;;16.00;100.00;99374.56;1659333;85;21022;-65
2022/10/01 06:16:45;;;;;;;7.58;6.87;;;;;;;16.16;100.00;99366.55;1659570;85;21098;-65
2022/10/01 06:19:16;;;;;;;6.90;5.42;;;;;;;16.33;100.00;99356.24;1654556;86;21076;-64
2022/10/01 06:21:42;;;;;;;6.97;6.20;;;;;;;16.49;100.00;99360.83;1633565;87;21002;-65
2022/10/01 06:24:09;;;;;;;8.30;7.50;;;;;;;16.63;100.00;99354.63;1634074;85;21111;-64
2022/10/01 06:26:38;;;;;;;7.55;6.22;;;;;;;16.78;100.00;99349.70;1633256;88;21065;-64
2022/10/01 06:29:04;;;;;;;6.83;6.12;;;;;;;16.90;100.00;99358.51;1634088;86;21116;-65
2022/10/01 06:31:30;;;;;;;9.70;6.30;;;;;;;17.02;100.00;99349.30;1633177;86;21461;-65
2022/10/01 06:33:57;;;;;;;8.20;5.95;;;;;;;17.10;100.00;99348.77;1633557;86;21197;-65
2022/10/01 06:36:24;;;;;;;6.25;5.47;;;;;;;17.20;100.00;99338.80;1633313;87;22064;-65
2022/10/01 06:38:51;;;;;;;7.47;6.05;;;;;;;17.26;100.00;99336.70;1633580;86;20970;-66
2022/10/01 06:41:18;;;;;;;11.95;7.75;;;;;;;17.30;100.00;99340.32;1656775;85;21033;-64
2022/10/01 06:43:47;;;;;;;4.72;4.22;;;;;;;17.37;100.00;99345.98;1654926;86;21038;-64
2022/10/01 06:46:14;;;;;;;8.20;4.70;;;;;;;17.41;100.00;99345.64;1667578;84;21111;-64
2022/10/01 06:48:40;;;;;;;6.97;4.55;;;;;;;17.44;100.00;99346.73;1671532;85;21110;-64
2022/10/01 06:51:09;;;;;;;9.33;4.72;;;;;;;17.47;100.00;99354.41;1652218;85;21002;-64
2022/10/01 06:53:37;;;;;;;6.50;4.40;;;;;;;17.50;100.00;99359.45;1634018;86;21025;-64
2022/10/01 06:56:05;;;;;;;5.90;4.83;;;;;;;17.53;100.00;99359.23;1633477;87;20977;-65
2022/10/01 06:58:32;;;;;;;8.58;5.72;;;;;;;17.56;100.00;99362.97;1633790;86;20977;-65
2022/10/01 07:01:00;;;;;;;7.15;4.72;;;;;;;17.61;100.00;99365.72;1633905;86;21240;-65
2022/10/01 07:03:27;;;;;;;9.98;5.65;;;;;;;17.64;100.00;99369.45;1633200;86;21005;-65
2022/10/01 07:06:01;;;;;;;8.13;4.67;;;;;;;17.68;100.00;99371.78;1633907;86;21092;-65
2022/10/01 07:08:28;;;;;;;7.30;4.70;;;;;;;17.76;100.00;99373.88;1634749;85;21025;-64
2022/10/01 07:11:01;;;;;;;9.95;5.47;;;;;;;17.87;100.00;99378.70;1633594;87;21476;-65
2022/10/01 07:13:28;;;;;;;8.38;4.67;;;;;;;17.98;100.00;99374.47;1634081;86;21564;-65
2022/10/01 07:15:55;;;;;;;9.38;4.45;;;;;;;18.06;100.00;99372.94;1633680;87;21049;-65
2022/10/01 07:18:23;;;;;;;15.53;4.35;;;;;;;18.11;100.00;99375.23;1633660;86;21082;-64
2022/10/01 07:20:49;;;;;;;5.65;3.20;;;;;;;18.17;100.00;99373.00;1634122;86;21492;-64
2022/10/01 07:23:16;;;;;;;18.82;4.53;;;;;;;18.22;100.00;99360.31;1634221;85;21512;-64
2022/10/01 07:25:43;;;;;;;4.75;2.72;;;;;;;18.25;100.00;99355.30;1633259;87;21143;-65
2022/10/01 07:28:16;;;;;;;7.58;3.98;;;;;;;18.29;100.00;99354.59;1633057;88;21284;-64
2022/10/01 07:31:02;;;;;;;5.53;3.02;;;;;;;18.30;100.00;99351.85;1633784;85;21070;-64
2022/10/01 07:33:31;;;;;;;12.10;3.35;;;;;;;18.35;100.00;99362.05;1633410;86;21540;-64
2022/10/01 07:36:04;;;;;;;6.42;3.30;;;;;;;18.39;100.00;99358.20;1633771;85;21061;-64
2022/10/01 07:38:34;;;;;;;21.02;5.87;;;;;;;18.41;99.49;99352.34;1633461;87;21444;-64
2022/10/01 07:41:03;;;;;;;7.70;4.25;;;;;;;18.44;99.03;99345.06;1633413;86;20901;-64
2022/10/01 07:43:32;;;;;;;11.20;3.35;;;;;;;18.52;99.13;99340.54;1633537;87;21013;-64
2022/10/01 07:46:00;;;;;;;8.88;3.70;;;;;;;18.62;98.59;99342.01;1633582;87;21056;-64
2022/10/01 07:48:27;;;;;;;4.47;2.92;;;;;;;18.69;98.03;99349.34;1623493;87;21008;-65
2022/10/01 07:50:54;;;;;;;10.95;3.98;;;;;;;18.77;97.31;99348.28;1633333;86;21208;-64
2022/10/01 07:53:22;;;;;;;9.80;3.58;;;;;;;18.84;96.40;99344.67;1633833;86;21014;-64
2022/10/01 07:55:49;;;;;;;3.27;2.47;;;;;;;18.91;95.39;99337.98;1633569;87;20985;-64
2022/10/01 07:58:17;;;;;;;15.40;3.25;;;;;;;18.96;94.07;99333.20;1633268;87;21022;-64
2022/10/01 08:00:47;;;;;;;9.60;3.35;;;;;;;19.01;93.12;99328.86;1635021;85;21037;-64
2022/10/01 08:03:15;;;;;;;10.10;3.00;;;;;;;19.08;91.20;99333.55;1633281;86;21940;-64
2022/10/01 08:05:42;;;;;;;12.37;3.05;;;;;;;19.13;90.63;99330.08;1633273;86;20961;-63
2022/10/01 08:08:10;;;;;;;14.05;2.60;;;;;;;19.21;90.57;99327.66;1633619;87;20982;-64
2022/10/01 08:10:37;;;;;;;6.67;2.60;;;;;;;19.30;89.65;99327.42;1633617;87;21065;-64
2022/10/01 08:13:15;;;;;;;8.30;2.10;;;;;;;19.39;88.98;99328.46;1633380;86;20965;-64
2022/10/01 08:15:44;;;;;;;10.95;3.10;;;;;;;19.48;86.59;99334.34;1633311;87;21259;-64
2022/10/01 08:18:11;;;;;;;7.87;3.22;;;;;;;19.56;85.78;99326.20;1633406;86;21406;-65
2022/10/01 08:20:40;;;;;;;5.15;2.22;;;;;;;19.67;85.09;99329.28;1646845;85;21006;-63
2022/10/01 08:23:13;;;;;;;12.55;3.05;;;;;;;19.79;83.97;99324.80;1659423;86;21034;-64
2022/10/01 08:25:40;;;;;;;7.47;2.22;;;;;;;19.88;82.32;99323.58;1659491;85;21051;-64
2022/10/01 08:28:09;;;;;;;9.75;1.60;;;;;;;20.00;80.26;99325.67;1659393;85;21329;-65
2022/10/01 08:30:38;;;;;;;12.10;2.42;;;;;;;20.10;78.90;99323.13;1659268;86;20978;-64
2022/10/01 08:33:08;;;;;;;2.17;1.57;;;;;;;20.18;78.65;99317.55;1629508;87;21066;-64
2022/10/01 08:35:45;;;;;;;5.55;1.95;;;;;;;20.26;77.66;99318.23;1657179;85;21065;-65
2022/10/01 08:38:11;;;;;;;4.45;2.15;;;;;;;20.32;76.88;99320.38;1657337;85;21019;-64
2022/10/01 08:40:49;;;;;;;3.15;2.40;;;;;;;20.38;76.67;99315.94;1657246;85;21303;-64
2022/10/01 08:43:31;;;;;;;7.75;1.85;;;;;;;20.44;76.58;99321.16;1647136;85;21540;-65
2022/10/01 08:46:02;;;;;;;5.77;1.70;;;;;;;20.48;75.56;99315.98;1647702;85;21018;-64
2022/10/01 08:49:13;;;;;;;1.70;1.22;;;;;;;20.53;75.75;99310.67;1647467;87;21164;-64
2022/10/01 08:52:10;;;;;;;4.17;1.20;;;;;;;20.59;75.06;99315.41;1647494;86;20971;-65
2022/10/01 08:54:45;;;;;;;7.05;1.60;;;;;;;20.65;72.97;99323.31;1650578;87;21394;-65
2022/10/01 08:57:15;;;;;;;17.90;2.15;;;;;;;20.66;71.38;99324.15;1645247;87;20983;-65
2022/10/01 08:59:54;;;;;;;3.20;1.62;;;;;;;20.67;70.81;99333.75;1655402;86;21136;-65
2022/10/01 09:02:27;;;;;;;3.65;1.60;;;;;;;20.70;71.67;99329.05;1632914;86;48460;-64
2022/10/01 09:05:05;;;;;;;6.55;1.70;;;;;;;20.77;71.02;99324.08;1648494;85;20958;-65
2022/10/01 09:08:06;;;;;;;4.08;2.20;;;;;;;20.82;70.30;99317.41;1659406;85;21119;-66
2022/10/01 09:10:41;;;;;;;4.60;1.12;;;;;;;20.87;70.52;99311.73;1657539;86;21564;-64
2022/10/01 09:13:46;;;;;;;3.12;1.65;;;;;;;20.94;70.80;99309.77;1659561;85;21533;-65
2022/10/01 09:16:44;;;;;;;3.85;1.55;;;;;;;21.00;70.63;99314.98;1659249;86;21140;-66
2022/10/01 09:19:26;;;;;;;5.87;1.45;;;;;;;21.05;69.61;99313.27;1647542;85;21003;-65
2022/10/01 09:22:07;;;;;;;4.03;1.60;;;;;;;21.08;69.63;99311.20;1637198;85;21144;-64
2022/10/01 09:24:52;;;;;;;3.05;1.85;;;;;;;21.13;69.54;99312.12;1633261;86;21068;-65
2022/10/01 09:27:23;;;;;;;8.40;1.60;;;;;;;21.17;69.84;99307.76;1633909;86;20989;-65
2022/10/01 09:30:01;;;;;;;5.30;2.00;;;;;;;21.25;70.41;99300.48;1633747;86;20974;-65
2022/10/01 09:32:42;;;;;;;5.83;1.50;;;;;;;21.32;70.66;99300.31;1633153;88;20992;-65
2022/10/01 09:35:30;;;;;;;5.83;1.92;;;;;;;21.37;70.23;99290.16;1633328;86;21260;-66
2022/10/01 09:38:00;;;;;;;3.62;1.40;;;;;;;21.43;68.73;99280.33;1633395;88;20945;-65
2022/10/01 09:40:38;;;;;;;4.87;1.85;;;;;;;21.51;68.91;99291.09;1633352;88;21066;-66
2022/10/01 09:43:09;;;;;;;3.77;1.50;;;;;;;21.59;69.65;99285.92;1633933;86;21092;-66
2022/10/01 09:45:34;;;;;;;4.85;1.70;;;;;;;21.72;69.64;99286.16;1635975;86;21060;-65
2022/10/01 09:48:37;;;;;;;3.25;1.50;;;;;;;21.81;68.52;99283.50;1634554;86;21154;-66
2022/10/01 09:51:37;;;;;;;5.15;1.62;;;;;;;21.89;67.86;99282.81;1633647;86;20998;-65
2022/10/01 09:54:35;;;;;;;4.65;1.80;;;;;;;21.96;68.01;99287.91;1633182;86;21014;-65
2022/10/01 09:57:14;;;;;;;4.00;1.67;;;;;;;21.97;67.72;99282.48;1633803;86;20950;-66
2022/10/01 10:00:16;;;;;;;4.72;1.40;;;;;;;21.93;67.18;99294.31;1633780;86;21057;-66
2022/10/01 10:02:48;;;;;;;2.40;1.70;;;;;;;21.95;67.15;99291.53;1612212;87;21944;-66
2022/10/01 10:05:29;;;;;;;3.62;1.60;;;;;;;21.97;67.35;99294.39;1652792;86;21049;-65
2022/10/01 10:08:06;;;;;;;1.47;1.30;;;;;;;21.99;67.86;99292.90;1633482;87;21020;-65
2022/10/01 10:10:34;;;;;;;2.30;1.50;;;;;;;22.05;67.06;99276.49;1622667;87;21021;-64
2022/10/01 10:13:04;;;;;;;2.15;1.37;;;;;;;22.13;66.77;99279.28;1633544;86;20961;-64
2022/10/01 10:15:32;;;;;;;3.40;1.70;;;;;;;22.20;66.09;99279.05;1633454;87;20953;-64
2022/10/01 10:18:16;;;;;;;4.35;1.60;;;;;;;22.26;66.23;99275.00;1634006;86;21092;-64
2022/10/01 10:20:44;;;;;;;3.00;1.52;;;;;;;22.31;65.93;99270.95;1640264;86;21032;-65
2022/10/01 10:23:20;;;;;;;7.90;1.80;;;;;;;22.39;65.77;99271.54;1659289;86;20991;-64
2022/10/01 10:26:02;;;;;;;3.58;1.80;;;;;;;22.46;64.97;99274.46;1659543;85;21122;-64
2022/10/01 10:28:41;;;;;;;3.27;1.50;;;;;;;22.51;64.33;99266.92;1659384;85;21804;-64
2022/10/01 10:31:12;;;;;;;3.58;1.22;;;;;;;22.58;63.06;99260.88;1659366;86;21053;-65
2022/10/01 10:34:05;;;;;;;3.40;1.50;;;;;;;22.61;62.47;99256.63;1659618;85;21506;-65
2022/10/01 10:36:34;;;;;;;2.55;1.10;;;;;;;22.61;61.98;99253.97;1638530;86;20978;-64
2022/10/01 10:39:04;;;;;;;3.90;1.32;;;;;;;22.66;62.25;99250.89;1647561;86;20954;-65
2022/10/01 10:41:31;;;;;;;4.37;1.95;;;;;;;22.69;61.95;99250.12;1647495;87;21114;-65
2022/10/01 10:44:05;;;;;;;2.50;0.90;;;;;;;22.68;61.87;99247.61;1660068;85;21014;-65
2022/10/01 10:46:35;;;;;;;4.30;1.00;;;;;;;22.64;59.98;99247.06;1659431;86;20974;-66
2022/10/01 10:49:06;;;;;;;4.83;1.20;;;;;;;22.59;59.64;99255.93;1659285;86;20994;-65
2022/10/01 10:51:48;;;;;;;1.37;1.07;;;;;;;22.55;59.98;99256.39;1647766;86;20987;-66
2022/10/01 10:54:36;;;;;;;5.50;1.60;;;;;;;22.45;60.02;99247.62;1659478;85;21235;-66
2022/10/01 10:57:20;;;;;;;2.85;1.95;;;;;;;22.32;60.60;99242.64;1659448;85;20969;-65
2022/10/01 11:00:12;;;;;;;3.70;1.90;;;;;;;22.21;60.61;99240.98;1648215;86;20998;-65
2022/10/01 11:02:41;;;;;;;2.55;1.70;;;;;;;22.09;60.14;99236.83;1628039;87;21124;-65
2022/10/01 11:05:28;;;;;;;4.12;1.70;;;;;;;21.98;60.31;99239.09;1659181;85;21029;-65
2022/10/01 11:07:57;;;;;;;7.03;1.67;;;;;;;21.93;61.11;99240.03;1647617;86;21781;-65
2022/10/01 11:11:02;;;;;;;2.77;1.20;;;;;;;21.92;62.00;99233.06;1659437;85;20966;-65
2022/10/01 11:13:39;;;;;;;6.75;1.70;;;;;;;21.97;62.23;99228.67;1659327;85;20950;-65
2022/10/01 11:16:48;;;;;;;3.87;1.22;;;;;;;22.07;62.26;99225.54;1659169;85;21022;-65
2022/10/01 11:19:24;;;;;;;6.80;1.52;;;;;;;22.16;62.32;99228.67;1659391;85;21056;-66
2022/10/01 11:22:33;;;;;;;4.53;1.70;;;;;;;22.27;62.36;99227.66;1659682;85;21208;-65
2022/10/01 11:25:25;;;;;;;7.97;1.75;;;;;;;22.33;62.88;99221.30;1659322;86;20982;-66
2022/10/01 11:28:03;;;;;;;1.95;1.27;;;;;;;22.45;62.85;99208.70;1647628;85;20974;-66
2022/10/01 11:30:45;;;;;;;5.35;1.70;;;;;;;22.61;62.02;99200.95;1659619;85;20982;-66
2022/10/01 11:33:43;;;;;;;2.67;1.27;;;;;;;22.78;61.55;99199.37;1659480;86;21438;-66
2022/10/01 11:36:25;;;;;;;3.92;2.10;;;;;;;23.00;61.31;99196.31;1659803;85;21164;-64
2022/10/01 11:38:57;;;;;;;3.67;1.32;;;;;;;23.23;60.10;99185.28;1629023;87;20994;-65
2022/10/01 11:41:43;;;;;;;3.42;1.10;;;;;;;23.42;58.92;99191.77;1659760;85;20986;-65
2022/10/01 11:44:47;;;;;;;4.47;1.75;;;;;;;23.55;57.75;99190.11;1647540;86;21082;-65
2022/10/01 11:47:28;;;;;;;1.55;1.00;;;;;;;23.63;57.16;99184.84;1659605;85;20986;-65
2022/10/01 11:50:06;;;;;;;4.08;2.02;;;;;;;23.80;57.24;99184.48;1647479;85;21314;-65